Time;durP1;ratioP1;P1;durP2;ratioP2;P2;SDS_P1;SDS_P2;PMS_P1;PMS_P2;Temp;Humidity;BMP_temperature;BMP_pressure;BME280_temperature;BME280_humidity;BME280_pressure;Samples;Min_cycle;Max_cycle;Signal;HPM_P1;HPM_P2
2023/08/04 00:02:21;;;;;;;3.83;1.10;;;;;;;15.20;72.54;96170.56;4975195;28;20138;-77
2023/08/04 00:04:48;;;;;;;1.10;0.80;;;;;;;15.17;72.52;96165.72;4975296;28;20058;-77
2023/08/04 00:07:16;;;;;;;3.55;0.50;;;;;;;15.13;72.47;96161.97;4975671;28;20125;-77
2023/08/04 00:09:44;;;;;;;1.35;0.70;;;;;;;15.07;72.58;96157.59;4975368;28;20495;-78
2023/08/04 00:12:11;;;;;;;1.00;0.55;;;;;;;15.02;72.93;96168.75;4974686;28;20129;-77
2023/08/04 00:14:39;;;;;;;3.35;0.93;;;;;;;14.99;73.05;96169.16;4975123;28;20113;-77
2023/08/04 00:17:06;;;;;;;1.73;0.73;;;;;;;14.96;72.85;96172.25;4975182;28;20050;-78
2023/08/04 00:19:35;;;;;;;5.65;0.77;;;;;;;14.94;73.32;96168.25;4975308;28;20081;-77
2023/08/04 00:22:03;;;;;;;3.95;1.00;;;;;;;14.94;73.62;96178.75;4974952;28;20082;-77
2023/08/04 00:24:31;;;;;;;2.85;0.70;;;;;;;14.99;74.82;96190.19;4975174;28;20492;-78
2023/08/04 00:27:01;;;;;;;5.90;0.70;;;;;;;15.09;74.82;96196.78;4975207;28;20086;-77
2023/08/04 00:29:29;;;;;;;0.98;0.65;;;;;;;15.11;73.60;96187.66;4975045;28;20416;-77
2023/08/04 00:31:57;;;;;;;1.63;0.47;;;;;;;15.11;73.03;96199.94;4974861;28;20050;-77
2023/08/04 00:34:25;;;;;;;1.52;0.70;;;;;;;15.03;72.83;96185.31;4975105;28;20050;-77
2023/08/04 00:36:54;;;;;;;1.13;0.40;;;;;;;14.96;73.02;96190.63;4975159;28;20078;-77
2023/08/04 00:39:21;;;;;;;1.98;0.55;;;;;;;14.90;73.16;96188.09;4974931;28;20085;-78
2023/08/04 00:41:49;;;;;;;1.40;0.40;;;;;;;14.81;73.41;96190.19;4974557;28;20145;-77
2023/08/04 00:44:16;;;;;;;1.85;0.75;;;;;;;14.74;73.44;96186.84;4982006;28;20043;-78
2023/08/04 00:46:45;;;;;;;0.70;0.52;;;;;;;14.66;73.66;96187.91;4974786;28;20106;-78
2023/08/04 00:49:12;;;;;;;2.30;0.50;;;;;;;14.60;73.69;96186.94;4974578;28;20086;-77
2023/08/04 00:51:40;;;;;;;1.63;0.63;;;;;;;14.55;73.96;96191.25;4974191;28;20097;-78
2023/08/04 00:54:09;;;;;;;2.30;0.52;;;;;;;14.52;73.93;96189.84;4975055;28;20081;-77
2023/08/04 00:56:38;;;;;;;0.80;0.70;;;;;;;14.52;74.44;96183.78;4974382;28;20098;-77
2023/08/04 00:59:05;;;;;;;1.45;0.40;;;;;;;14.53;74.19;96183.56;4974479;28;20050;-77
2023/08/04 01:01:33;;;;;;;1.45;0.50;;;;;;;14.57;75.31;96186.59;4973843;28;20105;-77
2023/08/04 01:04:01;;;;;;;1.15;0.60;;;;;;;14.61;74.59;96180.69;4976645;28;20050;-76
2023/08/04 01:06:40;;;;;;;1.40;0.75;;;;;;;14.64;74.28;96187.34;4974454;28;20050;-76
2023/08/04 01:09:16;;;;;;;8.70;0.77;;;;;;;14.64;74.13;96187.34;4974625;28;20054;-76
2023/08/04 01:11:51;;;;;;;2.22;0.70;;;;;;;14.64;74.30;96187.34;4974180;28;20465;-75
2023/08/04 01:14:19;;;;;;;4.05;0.68;;;;;;;14.63;73.92;96185.75;4974026;28;20133;-75
2023/08/04 01:16:47;;;;;;;1.35;0.50;;;;;;;14.55;73.85;96189.44;4973989;28;20047;-77
2023/08/04 01:19:15;;;;;;;5.18;0.77;;;;;;;14.51;74.08;96201.34;4973975;28;20047;-77
2023/08/04 01:21:44;;;;;;;1.30;0.95;;;;;;;14.49;74.08;96202.59;4973275;28;20051;-77
2023/08/04 01:24:12;;;;;;;2.60;0.80;;;;;;;14.48;74.23;96201.00;4973913;28;20046;-77
2023/08/04 01:26:44;;;;;;;2.13;0.73;;;;;;;14.45;74.30;96201.41;4974201;28;20057;-78
2023/08/04 01:29:13;;;;;;;4.17;0.90;;;;;;;14.41;74.42;96203.69;4973844;28;20078;-77
2023/08/04 01:31:41;;;;;;;3.60;0.75;;;;;;;14.34;74.40;96203.75;4973789;28;20477;-77
2023/08/04 01:34:09;;;;;;;5.07;1.10;;;;;;;14.29;74.92;96200.94;4973724;28;20055;-77
2023/08/04 01:36:37;;;;;;;2.28;0.55;;;;;;;14.27;74.86;96205.59;4973934;28;20423;-77
2023/08/04 01:39:06;;;;;;;2.90;0.82;;;;;;;14.30;77.19;96197.31;4973809;28;20090;-77
2023/08/04 01:41:33;;;;;;;3.03;0.93;;;;;;;14.39;77.24;96197.84;4973226;28;20105;-77
2023/08/04 01:44:01;;;;;;;1.40;0.52;;;;;;;14.43;75.62;96196.41;4973705;28;20401;-78
2023/08/04 01:46:28;;;;;;;2.38;0.70;;;;;;;14.37;75.01;96198.06;4973869;28;20426;-77
2023/08/04 01:48:56;;;;;;;2.83;0.80;;;;;;;14.39;76.32;96196.03;4973344;28;20050;-77
2023/08/04 01:51:23;;;;;;;2.25;1.10;;;;;;;14.46;75.29;96195.16;4973854;28;20079;-77
2023/08/04 01:53:51;;;;;;;1.67;0.90;;;;;;;14.48;75.54;96198.38;4974176;28;20042;-77
2023/08/04 01:56:20;;;;;;;2.88;1.10;;;;;;;14.48;74.97;96198.38;4976650;28;20055;-78
2023/08/04 01:58:47;;;;;;;1.55;0.68;;;;;;;14.53;76.00;96190.66;4973819;28;20095;-78
2023/08/04 02:01:15;;;;;;;3.78;0.73;;;;;;;14.60;75.02;96192.19;4973134;28;20101;-77
2023/08/04 02:03:44;;;;;;;1.70;0.80;;;;;;;14.61;74.44;96188.56;4973346;28;20053;-77
2023/08/04 02:06:11;;;;;;;2.13;0.60;;;;;;;14.60;74.19;96186.94;4973671;28;20055;-77
2023/08/04 02:08:39;;;;;;;4.72;0.88;;;;;;;14.65;76.46;96185.50;4973483;28;20078;-78
2023/08/04 02:11:06;;;;;;;2.28;0.60;;;;;;;14.65;75.13;96173.19;4973261;28;20118;-77
2023/08/04 02:13:35;;;;;;;2.63;0.65;;;;;;;14.61;74.25;96177.28;4973457;28;20047;-77
2023/08/04 02:16:03;;;;;;;1.85;0.75;;;;;;;14.61;75.97;96177.28;4972906;28;20094;-77
2023/08/04 02:18:31;;;;;;;1.58;0.52;;;;;;;14.63;74.84;96175.25;4973713;28;20055;-77
2023/08/04 02:20:58;;;;;;;6.57;1.00;;;;;;;14.61;74.40;96182.53;4973231;28;20141;-78
2023/08/04 02:23:26;;;;;;;2.10;0.88;;;;;;;14.62;74.56;96176.25;4973159;28;20043;-77
2023/08/04 02:25:54;;;;;;;3.08;0.80;;;;;;;14.62;73.73;96176.25;4972958;28;20097;-77
2023/08/04 02:28:21;;;;;;;1.50;0.75;;;;;;;14.61;73.84;96177.28;4972990;28;20051;-78
2023/08/04 02:30:50;;;;;;;2.47;1.10;;;;;;;14.58;74.12;96181.16;4973026;28;20101;-77
2023/08/04 02:33:18;;;;;;;3.75;0.70;;;;;;;14.61;74.17;96177.28;4973151;28;20483;-77
2023/08/04 02:35:46;;;;;;;4.97;1.50;;;;;;;14.62;73.77;96189.38;4976043;28;20129;-77
2023/08/04 02:38:14;;;;;;;1.88;0.70;;;;;;;14.61;73.24;96195.66;4977530;28;20105;-77
2023/08/04 02:40:41;;;;;;;3.58;1.15;;;;;;;14.56;73.28;96192.84;4977010;28;20054;-78
2023/08/04 02:43:09;;;;;;;1.90;0.80;;;;;;;14.49;73.39;96194.72;4976580;28;20109;-77
2023/08/04 02:45:37;;;;;;;2.03;0.47;;;;;;;14.47;73.88;96197.53;4982117;28;20066;-77
2023/08/04 02:48:06;;;;;;;1.63;0.75;;;;;;;14.43;73.39;96191.94;4978586;28;20086;-77
2023/08/04 02:50:33;;;;;;;1.65;0.73;;;;;;;14.38;73.62;96189.16;4976846;28;20527;-77
2023/08/04 02:53:01;;;;;;;1.27;0.60;;;;;;;14.35;73.56;96192.22;4976643;28;20054;-77
2023/08/04 02:55:30;;;;;;;1.48;0.70;;;;;;;14.33;73.73;96196.88;4976527;28;20055;-78
2023/08/04 02:57:58;;;;;;;1.92;0.57;;;;;;;14.32;73.66;96199.69;4977115;28;20117;-77
2023/08/04 03:00:26;;;;;;;4.78;1.02;;;;;;;14.27;73.99;96197.72;4976689;28;20051;-77
2023/08/04 03:02:54;;;;;;;1.58;0.60;;;;;;;14.23;73.90;96196.53;4976941;28;20051;-77
2023/08/04 03:05:23;;;;;;;1.75;0.50;;;;;;;14.17;74.31;96192.97;4976655;28;20086;-77
2023/08/04 03:07:50;;;;;;;1.38;0.85;;;;;;;14.14;74.18;96197.84;4976615;28;20051;-77
2023/08/04 03:10:18;;;;;;;2.15;1.00;;;;;;;14.12;74.48;96195.41;4976498;28;20082;-78
2023/08/04 03:12:45;;;;;;;2.17;0.80;;;;;;;14.10;74.24;96196.66;4976061;28;20568;-77
2023/08/04 03:15:13;;;;;;;3.83;0.85;;;;;;;14.07;74.48;96205.75;4976375;28;20082;-77
2023/08/04 03:17:41;;;;;;;2.08;0.60;;;;;;;14.04;74.46;96197.50;4976271;28;20050;-77
2023/08/04 03:20:10;;;;;;;1.73;0.82;;;;;;;14.01;74.56;96201.34;4979994;28;20054;-78
2023/08/04 03:22:39;;;;;;;3.00;0.88;;;;;;;13.95;74.57;96200.41;4990867;28;20050;-78
2023/08/04 03:25:09;;;;;;;1.73;0.77;;;;;;;13.91;74.74;96199.22;4991358;28;20070;-78
2023/08/04 03:27:37;;;;;;;2.28;1.10;;;;;;;13.88;74.63;96189.13;4992019;28;20055;-78
2023/08/04 03:30:05;;;;;;;2.85;0.82;;;;;;;13.86;74.83;96191.16;4981722;28;20098;-77
2023/08/04 03:32:33;;;;;;;2.70;1.05;;;;;;;13.84;75.09;96195.84;4976644;28;20061;-78
2023/08/04 03:35:00;;;;;;;1.63;0.70;;;;;;;13.85;75.13;96194.81;4976371;28;20042;-77
2023/08/04 03:37:28;;;;;;;1.13;0.77;;;;;;;13.86;75.24;96201.66;4976710;28;20077;-77
2023/08/04 03:39:57;;;;;;;2.88;1.00;;;;;;;13.85;74.87;96205.31;4976625;28;20058;-77
2023/08/04 03:42:25;;;;;;;5.38;0.70;;;;;;;13.82;74.83;96205.75;4976215;28;20109;-77
2023/08/04 03:44:52;;;;;;;3.35;0.68;;;;;;;13.79;75.10;96211.38;4976089;28;20156;-78
2023/08/04 03:47:20;;;;;;;2.05;0.65;;;;;;;13.76;74.92;96206.56;4974702;28;20051;-77
2023/08/04 03:49:48;;;;;;;3.88;1.35;;;;;;;13.74;75.13;96211.22;4976162;28;20061;-77
2023/08/04 03:52:15;;;;;;;4.28;1.23;;;;;;;13.73;75.13;96210.44;4975570;28;20097;-78
2023/08/04 03:54:43;;;;;;;0.60;0.55;;;;;;;13.71;75.21;96204.59;4977080;28;20051;-78
2023/08/04 03:57:12;;;;;;;2.08;0.80;;;;;;;13.73;76.06;96213.06;4976440;28;20137;-78
2023/08/04 03:59:39;;;;;;;1.20;0.57;;;;;;;13.76;75.61;96211.81;4975998;28;20055;-78
2023/08/04 04:02:07;;;;;;;2.05;0.90;;;;;;;13.81;77.60;96214.59;4975324;28;20096;-78
2023/08/04 04:04:34;;;;;;;3.92;0.93;;;;;;;13.90;76.85;96213.31;4975677;28;20078;-77
2023/08/04 04:07:02;;;;;;;2.03;0.70;;;;;;;13.93;76.07;96217.38;4975454;28;20050;-77
2023/08/04 04:09:30;;;;;;;2.53;1.15;;;;;;;13.95;75.56;96221.38;4970681;28;20051;-77
2023/08/04 04:11:57;;;;;;;2.75;1.63;;;;;;;13.94;75.56;96218.97;4960596;28;20508;-77
2023/08/04 04:14:26;;;;;;;3.15;0.70;;;;;;;13.94;75.27;96219.75;4956751;28;20058;-78
2023/08/04 04:16:54;;;;;;;3.08;0.80;;;;;;;13.96;75.28;96222.97;4956586;28;20078;-77
2023/08/04 04:19:21;;;;;;;2.67;1.30;;;;;;;13.97;75.01;96224.59;4956229;28;20485;-77
2023/08/04 04:21:49;;;;;;;2.60;0.70;;;;;;;13.98;74.83;96226.19;4973848;28;20467;-77
2023/08/04 04:24:17;;;;;;;2.28;1.20;;;;;;;13.96;74.83;96217.72;4958702;28;20047;-77
2023/08/04 04:26:44;;;;;;;2.47;1.02;;;;;;;13.95;75.03;96221.38;4955872;28;20524;-77
2023/08/04 04:29:12;;;;;;;1.88;0.90;;;;;;;13.94;75.08;96227.63;4960699;28;20457;-77
2023/08/04 04:31:41;;;;;;;1.75;0.80;;;;;;;13.93;75.30;96222.63;4961762;28;20107;-77
2023/08/04 04:34:08;;;;;;;7.95;1.38;;;;;;;13.93;75.39;96215.53;4970460;28;20046;-77
2023/08/04 04:36:36;;;;;;;2.13;1.10;;;;;;;13.92;75.55;96224.41;4974818;28;20052;-77
2023/08/04 04:39:03;;;;;;;4.82;0.95;;;;;;;13.93;75.15;96223.41;4969419;28;20082;-77
2023/08/04 04:41:31;;;;;;;2.45;1.30;;;;;;;13.91;75.07;96217.56;4955234;28;20051;-77
2023/08/04 04:43:59;;;;;;;3.47;0.95;;;;;;;13.89;75.07;96218.81;4973234;28;20082;-77
2023/08/04 04:46:27;;;;;;;1.42;0.80;;;;;;;13.87;75.01;96219.00;4974811;28;20051;-77
2023/08/04 04:48:56;;;;;;;1.67;1.13;;;;;;;13.86;75.38;96227.88;4960397;28;20047;-77
2023/08/04 04:51:23;;;;;;;2.53;0.85;;;;;;;13.86;75.54;96227.88;4970604;28;20105;-77
2023/08/04 04:53:51;;;;;;;2.35;1.00;;;;;;;13.94;78.41;96229.44;4963803;28;20570;-77
2023/08/04 04:56:19;;;;;;;1.13;0.80;;;;;;;14.00;76.49;96233.84;4955350;28;20117;-77
2023/08/04 04:58:46;;;;;;;1.23;0.88;;;;;;;14.00;75.71;96228.59;4955897;28;20102;-77
2023/08/04 05:01:14;;;;;;;3.30;1.17;;;;;;;14.00;75.37;96229.41;4961355;28;20050;-77
2023/08/04 05:03:41;;;;;;;1.70;1.17;;;;;;;13.99;75.19;96235.69;4958407;28;20055;-77
2023/08/04 05:06:11;;;;;;;4.65;0.80;;;;;;;13.96;75.01;96238.72;4955088;28;20047;-77
2023/08/04 05:08:38;;;;;;;4.65;0.73;;;;;;;13.94;75.33;96232.88;4959757;28;20050;-76
2023/08/04 05:11:06;;;;;;;1.75;0.90;;;;;;;13.95;75.10;96244.97;4964716;28;20079;-78
2023/08/04 05:13:33;;;;;;;4.03;1.20;;;;;;;13.94;75.14;96230.25;4974168;28;20102;-77
2023/08/04 05:16:01;;;;;;;1.65;0.98;;;;;;;13.98;75.54;96238.50;4962742;28;20118;-77
2023/08/04 05:18:28;;;;;;;2.15;0.93;;;;;;;14.01;75.61;96238.91;4968158;28;20057;-77
2023/08/04 05:20:56;;;;;;;2.10;1.08;;;;;;;14.06;75.46;96232.19;4964650;28;20621;-77
2023/08/04 05:23:25;;;;;;;3.15;1.08;;;;;;;14.11;75.35;96237.63;4971138;28;20050;-77
2023/08/04 05:25:53;;;;;;;1.65;1.15;;;;;;;14.13;75.30;96233.75;4962780;28;20055;-76
2023/08/04 05:28:27;;;;;;;4.18;1.33;;;;;;;14.17;75.27;96231.53;4954925;28;20098;-77
2023/08/04 05:30:56;;;;;;;1.55;0.93;;;;;;;14.23;75.87;96233.28;4969371;28;20585;-77
2023/08/04 05:33:24;;;;;;;2.05;1.08;;;;;;;14.29;75.51;96227.19;4973692;28;20058;-76
2023/08/04 05:35:53;;;;;;;1.85;0.85;;;;;;;14.36;75.93;96230.53;4961937;28;20058;-77
2023/08/04 05:38:21;;;;;;;2.03;0.90;;;;;;;14.47;76.88;96229.03;4954813;29;20062;-77
2023/08/04 05:40:51;;;;;;;3.50;0.85;;;;;;;14.56;76.02;96219.09;4954014;29;20102;-77
2023/08/04 05:43:18;;;;;;;1.67;0.80;;;;;;;14.61;75.62;96227.16;4954460;29;20055;-76
2023/08/04 05:45:48;;;;;;;3.28;0.73;;;;;;;14.68;75.60;96234.97;4954304;28;20082;-78
2023/08/04 05:48:16;;;;;;;2.30;0.60;;;;;;;14.72;75.36;96236.94;4970529;28;20424;-78
2023/08/04 05:50:44;;;;;;;7.82;1.20;;;;;;;14.76;75.36;96238.13;4973765;28;20054;-79
2023/08/04 05:53:11;;;;;;;3.03;1.08;;;;;;;14.81;74.93;96229.59;4973505;28;20047;-78
2023/08/04 05:55:39;;;;;;;2.70;0.90;;;;;;;14.88;75.07;96245.28;4973471;28;20556;-78
2023/08/04 05:58:08;;;;;;;4.22;0.90;;;;;;;14.95;74.84;96243.38;4974059;28;20110;-78
2023/08/04 06:00:36;;;;;;;1.75;0.82;;;;;;;14.99;74.53;96236.66;4973736;28;20074;-79
2023/08/04 06:03:04;;;;;;;2.17;1.00;;;;;;;15.07;75.80;96241.63;4973093;28;20085;-79
2023/08/04 06:05:32;;;;;;;3.70;1.17;;;;;;;15.13;75.02;96243.41;4973386;28;20046;-79
2023/08/04 06:07:59;;;;;;;3.15;0.98;;;;;;;15.19;73.97;96250.38;4964180;28;20089;-78
2023/08/04 06:10:27;;;;;;;1.27;1.05;;;;;;;15.25;73.53;96249.50;4970600;28;20075;-79
2023/08/04 06:12:54;;;;;;;2.13;1.00;;;;;;;15.34;73.23;96247.38;4973238;28;20058;-79
2023/08/04 06:15:24;;;;;;;1.33;0.90;;;;;;;15.42;73.10;96246.28;4973314;28;20050;-79
2023/08/04 06:17:51;;;;;;;3.53;1.30;;;;;;;15.52;73.31;96241.28;4973067;28;20567;-78
2023/08/04 06:20:19;;;;;;;2.70;0.85;;;;;;;15.60;72.23;96235.75;4973368;28;20055;-79
2023/08/04 06:22:48;;;;;;;1.98;0.90;;;;;;;15.68;72.14;96236.44;4955645;28;20047;-80
2023/08/04 06:25:16;;;;;;;1.02;0.80;;;;;;;15.80;72.42;96239.97;4962205;28;20078;-79
2023/08/04 06:27:43;;;;;;;1.90;0.80;;;;;;;15.92;72.07;96234.72;4968556;28;20051;-79
2023/08/04 06:30:11;;;;;;;2.03;0.80;;;;;;;16.03;73.86;96242.69;4964972;28;20074;-78
2023/08/04 06:32:40;;;;;;;1.98;0.47;;;;;;;16.17;72.00;96247.75;4966937;28;20063;-78
2023/08/04 06:35:08;;;;;;;2.45;0.70;;;;;;;16.27;71.40;96243.53;4963137;28;20521;-80
2023/08/04 06:37:36;;;;;;;1.35;0.75;;;;;;;16.40;71.23;96242.53;4956305;28;20532;-79
2023/08/04 06:40:04;;;;;;;1.60;0.60;;;;;;;16.55;70.98;96247.34;4973396;28;20117;-79
2023/08/04 06:42:32;;;;;;;1.20;0.80;;;;;;;16.71;71.27;96255.59;4969313;28;20062;-79
2023/08/04 06:45:01;;;;;;;1.38;1.00;;;;;;;16.85;72.85;96249.88;4971102;28;20050;-79
2023/08/04 06:47:29;;;;;;;2.95;0.98;;;;;;;16.95;69.21;96248.53;4957339;28;20109;-76
2023/08/04 06:49:58;;;;;;;0.70;0.70;;;;;;;17.04;71.29;96247.13;4962352;28;20077;-77
2023/08/04 06:52:25;;;;;;;1.02;0.70;;;;;;;17.16;70.47;96255.81;4973165;28;20054;-77
2023/08/04 06:54:54;;;;;;;1.08;0.57;;;;;;;17.24;69.81;96255.47;4969151;28;20100;-76
2023/08/04 06:57:21;;;;;;;1.10;0.50;;;;;;;17.34;67.70;96251.44;4960703;28;20105;-77
2023/08/04 06:59:49;;;;;;;1.00;0.43;;;;;;;17.42;68.04;96251.06;4969771;28;20573;-79
2023/08/04 07:02:17;;;;;;;1.70;0.68;;;;;;;17.49;66.94;96247.28;4965571;28;20048;-79
2023/08/04 07:04:45;;;;;;;1.00;0.60;;;;;;;17.57;69.58;96250.56;4969613;28;20502;-77
2023/08/04 07:07:14;;;;;;;3.42;0.88;;;;;;;17.63;69.97;96245.16;4953951;28;20047;-77
2023/08/04 07:09:41;;;;;;;1.75;0.82;;;;;;;17.66;67.84;96246.53;4954241;28;20102;-77
2023/08/04 07:12:09;;;;;;;2.15;0.90;;;;;;;17.73;67.67;96249.03;4963690;28;20097;-79
2023/08/04 07:14:37;;;;;;;2.20;0.55;;;;;;;17.81;65.79;96251.28;4969721;28;20082;-77
2023/08/04 07:17:05;;;;;;;5.15;0.93;;;;;;;17.88;65.20;96251.97;4964760;28;20047;-77
2023/08/04 07:19:32;;;;;;;3.08;0.73;;;;;;;17.96;64.67;96254.22;4971368;28;20433;-77
2023/08/04 07:22:00;;;;;;;3.80;0.95;;;;;;;18.04;64.87;96255.69;4974471;28;20101;-77
2023/08/04 07:24:29;;;;;;;1.83;0.60;;;;;;;18.14;64.59;96253.22;4976524;28;20101;-79
2023/08/04 07:26:59;;;;;;;1.05;0.57;;;;;;;18.24;65.29;96271.88;4976677;28;20075;-77
2023/08/04 07:29:26;;;;;;;2.25;0.73;;;;;;;18.34;64.47;96271.25;4964171;28;20043;-79
2023/08/04 07:31:54;;;;;;;1.60;1.02;;;;;;;18.39;64.46;96266.06;4968910;28;20531;-78
2023/08/04 07:34:22;;;;;;;1.13;0.60;;;;;;;18.46;64.27;96271.19;4966504;28;20051;-77
2023/08/04 07:36:49;;;;;;;1.80;0.90;;;;;;;18.55;64.61;96271.59;4983935;28;20053;-78
2023/08/04 07:39:17;;;;;;;2.30;0.90;;;;;;;18.62;64.54;96262.44;4969015;28;20047;-77
2023/08/04 07:41:45;;;;;;;1.58;0.88;;;;;;;18.71;67.77;96260.19;4958476;28;20470;-76
2023/08/04 07:44:13;;;;;;;0.88;0.82;;;;;;;18.77;68.32;96256.59;4958101;28;20657;-76
2023/08/04 07:46:41;;;;;;;2.30;0.63;;;;;;;18.83;65.97;96260.94;4964864;28;20079;-76
2023/08/04 07:49:09;;;;;;;2.17;0.60;;;;;;;18.97;67.49;96257.97;4969989;28;20054;-77
2023/08/04 07:51:36;;;;;;;2.20;0.75;;;;;;;19.14;66.50;96251.59;4986458;28;20050;-77
2023/08/04 07:54:04;;;;;;;3.72;0.93;;;;;;;19.30;67.36;96251.78;4977846;28;20078;-76
2023/08/04 07:56:32;;;;;;;0.43;0.40;;;;;;;19.39;66.41;96244.22;4976726;28;20494;-76
2023/08/04 07:59:02;;;;;;;1.08;0.40;;;;;;;19.41;64.20;96253.50;4957610;28;20047;-76
2023/08/04 08:01:29;;;;;;;0.93;0.30;;;;;;;19.39;62.77;96245.00;4956683;28;20082;-76
2023/08/04 08:03:57;;;;;;;1.10;0.57;;;;;;;19.37;65.63;96249.75;4958428;28;20051;-75
2023/08/04 08:06:25;;;;;;;2.28;0.50;;;;;;;19.34;63.25;96258.97;4957624;28;20061;-76
2023/08/04 08:08:53;;;;;;;2.17;0.57;;;;;;;19.34;63.23;96253.69;4961533;28;20129;-77
2023/08/04 08:11:20;;;;;;;2.38;0.65;;;;;;;19.33;62.62;96254.75;4975942;28;20050;-78
2023/08/04 08:13:48;;;;;;;2.20;1.10;;;;;;;19.34;63.85;96258.19;4975113;28;20101;-76
2023/08/04 08:16:17;;;;;;;1.08;0.40;;;;;;;19.30;62.96;96259.72;4963045;28;20043;-77
2023/08/04 08:18:46;;;;;;;2.38;0.70;;;;;;;19.28;64.70;96259.94;4974127;28;20051;-77
2023/08/04 08:21:14;;;;;;;3.10;0.82;;;;;;;19.34;62.98;96258.19;4967515;28;20054;-77
2023/08/04 08:23:42;;;;;;;1.73;0.40;;;;;;;19.48;62.01;96250.66;4971998;28;20468;-77
2023/08/04 08:26:10;;;;;;;1.55;0.40;;;;;;;19.63;61.59;96244.75;4957338;28;20055;-77
2023/08/04 08:28:37;;;;;;;1.52;0.50;;;;;;;19.81;61.08;96246.31;4960068;28;20075;-78
2023/08/04 08:31:05;;;;;;;3.58;0.28;;;;;;;20.00;60.50;96250.19;4966229;28;20129;-78
2023/08/04 08:33:34;;;;;;;1.45;0.30;;;;;;;20.20;60.05;96249.59;4972269;28;20043;-79
2023/08/04 08:36:02;;;;;;;1.20;0.30;;;;;;;20.38;59.23;96243.16;4956601;28;20151;-79
2023/08/04 08:38:30;;;;;;;0.65;0.20;;;;;;;20.56;59.07;96242.75;4959175;28;20046;-79
2023/08/04 08:40:57;;;;;;;1.58;0.47;;;;;;;20.73;58.93;96244.50;4974493;28;20051;-79
2023/08/04 08:43:25;;;;;;;8.98;0.40;;;;;;;20.85;57.25;96228.38;4972864;28;20058;-80
2023/08/04 08:45:55;;;;;;;2.00;0.52;;;;;;;20.96;58.35;96238.00;4969327;28;20043;-80
2023/08/04 08:48:23;;;;;;;1.33;0.40;;;;;;;21.06;57.30;96246.00;4956931;28;20054;-79
2023/08/04 08:51:03;;;;;;;3.80;0.60;;;;;;;21.14;56.28;96260.63;4956471;28;20101;-77
2023/08/04 08:53:32;;;;;;;1.13;0.50;;;;;;;21.24;56.54;96242.13;4959852;28;20110;-79
2023/08/04 08:56:01;;;;;;;2.97;0.57;;;;;;;21.42;56.18;96254.16;4961772;29;20066;-76
2023/08/04 08:58:31;;;;;;;0.60;0.60;;;;;;;21.55;56.45;96247.59;4956167;28;20051;-78
2023/08/04 09:01:00;;;;;;;1.17;0.38;;;;;;;21.68;55.20;96256.91;4956067;28;20075;-80
2023/08/04 09:03:28;;;;;;;0.95;0.40;;;;;;;21.77;55.36;96250.81;4971559;28;20055;-76
2023/08/04 09:05:57;;;;;;;0.90;0.30;;;;;;;21.84;53.82;96257.75;4964623;28;20079;-76
2023/08/04 09:08:24;;;;;;;1.30;0.45;;;;;;;21.91;53.77;96245.00;4955301;28;20075;-76
2023/08/04 09:10:52;;;;;;;0.95;0.20;;;;;;;21.97;52.99;96249.28;4955996;28;20063;-77
2023/08/04 09:13:20;;;;;;;1.58;0.40;;;;;;;21.94;54.50;96249.81;4968065;28;20047;-78
2023/08/04 09:15:51;;;;;;;1.83;0.47;;;;;;;21.88;52.75;96262.28;4965476;28;20051;-77
2023/08/04 09:18:26;;;;;;;1.45;0.43;;;;;;;21.81;52.41;96257.22;4968473;28;20055;-76
2023/08/04 09:21:00;;;;;;;1.35;0.38;;;;;;;21.79;52.07;96251.38;4975758;28;20046;-76
2023/08/04 09:23:29;;;;;;;1.63;0.30;;;;;;;21.84;53.54;96250.56;4980372;28;20505;-77
2023/08/04 09:25:57;;;;;;;0.95;0.40;;;;;;;21.79;52.54;96251.38;4981428;28;20054;-77
2023/08/04 09:28:25;;;;;;;5.18;0.40;;;;;;;21.78;52.67;96249.00;4972105;28;20495;-75
2023/08/04 09:31:04;;;;;;;2.67;0.43;;;;;;;21.88;52.27;96233.06;4958488;28;20106;-76
2023/08/04 09:33:32;;;;;;;1.83;0.40;;;;;;;21.99;51.71;96242.66;4955271;28;20505;-76
2023/08/04 09:36:07;;;;;;;0.30;0.20;;;;;;;22.05;51.00;96242.66;4956735;28;20051;-76
2023/08/04 09:38:36;;;;;;;1.10;0.30;;;;;;;22.09;53.28;96241.88;4956527;28;20118;-77
2023/08/04 09:41:06;;;;;;;0.95;0.28;;;;;;;22.11;50.29;96242.41;4967594;28;20500;-76
2023/08/04 09:43:34;;;;;;;0.65;0.20;;;;;;;22.20;52.89;96238.16;4973092;28;20054;-77
2023/08/04 09:46:05;;;;;;;1.80;0.30;;;;;;;22.35;51.81;96233.97;4972499;28;20113;-77
2023/08/04 09:48:33;;;;;;;1.88;0.45;;;;;;;22.40;49.97;96226.78;4973583;28;20058;-76
2023/08/04 09:51:10;;;;;;;0.82;0.25;;;;;;;22.38;49.31;96223.59;4971441;28;20472;-76
2023/08/04 09:53:46;;;;;;;2.25;0.30;;;;;;;22.37;49.13;96221.22;4973265;28;20051;-76
2023/08/04 09:56:16;;;;;;;1.60;0.10;;;;;;;22.37;49.82;96221.22;4971271;28;20049;-77
2023/08/04 09:58:44;;;;;;;1.10;0.20;;;;;;;22.37;51.38;96229.19;4973404;28;20054;-76
2023/08/04 10:01:12;;;;;;;1.13;0.30;;;;;;;22.42;50.98;96231.84;4971361;28;20059;-76
2023/08/04 10:03:43;;;;;;;1.25;0.30;;;;;;;22.55;50.25;96231.28;4965780;28;20405;-77
2023/08/04 10:06:13;;;;;;;1.52;0.50;;;;;;;22.59;48.82;96218.28;4954145;28;20154;-77
2023/08/04 10:08:41;;;;;;;1.23;0.22;;;;;;;22.57;48.70;96213.22;4953453;29;20106;-77
2023/08/04 10:11:09;;;;;;;1.73;0.40;;;;;;;22.49;49.33;96205.78;4954242;28;20055;-76
2023/08/04 10:13:40;;;;;;;0.93;0.30;;;;;;;22.37;49.65;96206.06;4973200;28;20105;-76
2023/08/04 10:16:11;;;;;;;0.63;0.30;;;;;;;22.27;49.69;96210.56;4972781;28;20508;-77
2023/08/04 10:18:50;;;;;;;1.58;0.40;;;;;;;22.14;49.15;96215.31;4970735;28;20097;-76
2023/08/04 10:21:21;;;;;;;1.13;0.20;;;;;;;22.04;50.29;96219.81;4971917;28;20080;-76
2023/08/04 10:23:49;;;;;;;1.35;0.25;;;;;;;22.00;50.94;96216.91;4974835;28;20051;-77
2023/08/04 10:26:16;;;;;;;0.88;0.20;;;;;;;21.97;50.61;96228.03;4966106;28;20050;-76
2023/08/04 10:29:01;;;;;;;0.90;0.50;;;;;;;22.05;50.55;96224.88;4964437;28;20120;-76
2023/08/04 10:31:47;;;;;;;0.55;0.20;;;;;;;22.29;50.24;96229.72;4955961;28;20126;-77
2023/08/04 10:34:17;;;;;;;0.95;0.40;;;;;;;22.42;49.37;96229.19;4955919;28;20051;-76
2023/08/04 10:36:59;;;;;;;2.72;0.40;;;;;;;22.46;48.81;96229.44;4954319;28;20051;-76
2023/08/04 10:39:28;;;;;;;1.65;0.30;;;;;;;22.46;48.72;96240.88;4968593;28;20055;-77
2023/08/04 10:41:59;;;;;;;0.57;0.20;;;;;;;22.48;48.63;96237.94;4972275;28;20053;-77
2023/08/04 10:44:31;;;;;;;0.88;0.40;;;;;;;22.59;48.58;96240.34;4972768;28;20062;-78
2023/08/04 10:47:04;;;;;;;1.85;0.30;;;;;;;22.82;47.50;96235.50;4958053;28;20059;-77
2023/08/04 10:49:32;;;;;;;2.50;0.47;;;;;;;22.98;47.37;96237.09;4969223;28;20183;-80
2023/08/04 10:52:01;;;;;;;0.88;0.20;;;;;;;23.00;46.37;96232.31;4966618;28;20051;-78
2023/08/04 10:54:29;;;;;;;0.63;0.28;;;;;;;22.99;47.09;96222.69;4958637;28;20058;-78
2023/08/04 10:56:56;;;;;;;0.60;0.35;;;;;;;22.99;47.82;96227.22;4970716;28;20113;-77
2023/08/04 10:59:24;;;;;;;1.40;0.68;;;;;;;23.00;48.20;96219.03;4976924;28;20106;-78
2023/08/04 11:01:52;;;;;;;0.28;0.28;;;;;;;22.98;47.46;96229.09;4962494;28;20206;-77
2023/08/04 11:04:19;;;;;;;0.77;0.20;;;;;;;22.91;47.94;96227.78;4969997;28;20046;-78
2023/08/04 11:06:50;;;;;;;0.93;0.40;;;;;;;22.83;47.41;96234.47;4963406;28;20055;-77
2023/08/04 11:09:20;;;;;;;0.47;0.43;;;;;;;22.76;47.00;96244.56;4957270;29;20098;-77
2023/08/04 11:11:48;;;;;;;0.35;0.10;;;;;;;22.72;48.28;96244.31;4957527;28;20055;-78
2023/08/04 11:14:18;;;;;;;0.20;0.10;;;;;;;22.63;46.64;96251.25;4957915;29;20051;-81
2023/08/04 11:16:46;;;;;;;4.43;0.30;;;;;;;22.52;46.37;96250.44;4963815;28;20583;-76
2023/08/04 11:19:19;;;;;;;1.52;0.28;;;;;;;22.49;48.24;96253.63;4963387;29;20070;-77
2023/08/04 11:21:47;;;;;;;0.85;0.35;;;;;;;22.47;47.43;96254.94;4991160;28;20039;-76
2023/08/04 11:24:15;;;;;;;0.90;0.30;;;;;;;22.45;47.64;96276.47;4986737;28;20058;-77
2023/08/04 11:26:44;;;;;;;0.50;0.10;;;;;;;22.46;47.23;96278.06;4975392;28;20137;-78
2023/08/04 11:29:12;;;;;;;2.28;0.35;;;;;;;22.46;46.82;96274.63;4965158;28;20366;-77
2023/08/04 11:31:41;;;;;;;0.50;0.32;;;;;;;22.45;48.74;96276.47;4959745;28;20131;-76
2023/08/04 11:34:12;;;;;;;1.45;0.40;;;;;;;22.42;49.30;96266.38;4962644;28;20082;-76
2023/08/04 11:36:40;;;;;;;1.98;0.20;;;;;;;22.41;47.74;96276.22;4975575;28;20101;-76
2023/08/04 11:39:08;;;;;;;0.80;0.17;;;;;;;22.47;49.97;96277.00;4968012;28;20043;-76
2023/08/04 11:41:36;;;;;;;0.70;0.10;;;;;;;22.57;48.85;96277.00;4974668;28;20054;-76